sensor_id;sensor_type;location;lat;lon;timestamp;temperature;humidity
1011;DHT22;494;48.744;10.106;2023-03-12T00:01:49;1.80;30.20
1011;DHT22;494;48.744;10.106;2023-03-12T00:04:31;1.80;30.20
1011;DHT22;494;48.744;10.106;2023-03-12T00:07:02;1.70;30.30
1011;DHT22;494;48.744;10.106;2023-03-12T00:09:34;1.90;30.30
1011;DHT22;494;48.744;10.106;2023-03-12T00:12:08;1.70;30.20
1011;DHT22;494;48.744;10.106;2023-03-12T00:14:37;1.60;30.20
1011;DHT22;494;48.744;10.106;2023-03-12T00:17:06;1.60;30.20
1011;DHT22;494;48.744;10.106;2023-03-12T00:19:34;1.50;30.20
1011;DHT22;494;48.744;10.106;2023-03-12T00:22:03;1.60;30.10
1011;DHT22;494;48.744;10.106;2023-03-12T00:24:32;1.50;30.30
1011;DHT22;494;48.744;10.106;2023-03-12T00:27:01;1.50;30.30
1011;DHT22;494;48.744;10.106;2023-03-12T00:29:34;1.50;30.40
1011;DHT22;494;48.744;10.106;2023-03-12T00:32:05;1.60;30.70
1011;DHT22;494;48.744;10.106;2023-03-12T00:34:35;1.40;30.60
1011;DHT22;494;48.744;10.106;2023-03-12T00:37:04;1.40;30.60
1011;DHT22;494;48.744;10.106;2023-03-12T00:39:34;1.50;30.60
1011;DHT22;494;48.744;10.106;2023-03-12T00:42:03;1.50;30.30
1011;DHT22;494;48.744;10.106;2023-03-12T00:44:37;1.30;30.50
1011;DHT22;494;48.744;10.106;2023-03-12T00:47:06;1.40;30.70
1011;DHT22;494;48.744;10.106;2023-03-12T00:49:41;1.30;30.80
1011;DHT22;494;48.744;10.106;2023-03-12T00:52:09;1.20;30.90
1011;DHT22;494;48.744;10.106;2023-03-12T00:54:38;1.20;31.10
1011;DHT22;494;48.744;10.106;2023-03-12T00:57:07;1.30;31.40
1011;DHT22;494;48.744;10.106;2023-03-12T00:59:38;1.20;31.30
1011;DHT22;494;48.744;10.106;2023-03-12T01:02:09;1.30;31.50
1011;DHT22;494;48.744;10.106;2023-03-12T01:04:39;1.20;31.50
1011;DHT22;494;48.744;10.106;2023-03-12T01:07:08;1.10;31.30
1011;DHT22;494;48.744;10.106;2023-03-12T01:09:38;1.20;31.40
1011;DHT22;494;48.744;10.106;2023-03-12T01:12:08;1.30;31.40
1011;DHT22;494;48.744;10.106;2023-03-12T01:14:40;1.10;31.50
1011;DHT22;494;48.744;10.106;2023-03-12T01:17:10;1.30;31.80
1011;DHT22;494;48.744;10.106;2023-03-12T01:19:39;1.10;31.70
1011;DHT22;494;48.744;10.106;2023-03-12T01:22:10;1.20;31.70
1011;DHT22;494;48.744;10.106;2023-03-12T01:24:41;1.10;31.90
1011;DHT22;494;48.744;10.106;2023-03-12T01:27:10;1.10;31.80
1011;DHT22;494;48.744;10.106;2023-03-12T01:29:41;1.20;31.90
1011;DHT22;494;48.744;10.106;2023-03-12T01:32:11;1.30;31.90
1011;DHT22;494;48.744;10.106;2023-03-12T01:34:45;1.10;31.70
1011;DHT22;494;48.744;10.106;2023-03-12T01:37:24;1.10;31.70
1011;DHT22;494;48.744;10.106;2023-03-12T01:39:53;1.20;31.50
1011;DHT22;494;48.744;10.106;2023-03-12T01:42:22;1.30;31.50
1011;DHT22;494;48.744;10.106;2023-03-12T01:44:57;1.30;31.40
1011;DHT22;494;48.744;10.106;2023-03-12T01:47:30;1.10;31.30
1011;DHT22;494;48.744;10.106;2023-03-12T01:50:01;1.30;31.50
1011;DHT22;494;48.744;10.106;2023-03-12T01:52:33;1.10;31.40
1011;DHT22;494;48.744;10.106;2023-03-12T01:55:08;1.20;31.40
1011;DHT22;494;48.744;10.106;2023-03-12T01:57:44;1.10;31.40
1011;DHT22;494;48.744;10.106;2023-03-12T02:00:20;1.20;31.40
1011;DHT22;494;48.744;10.106;2023-03-12T02:02:51;1.10;31.20
1011;DHT22;494;48.744;10.106;2023-03-12T02:05:31;1.00;31.30
1011;DHT22;494;48.744;10.106;2023-03-12T02:08:05;1.10;31.60
1011;DHT22;494;48.744;10.106;2023-03-12T02:10:34;1.20;31.70
1011;DHT22;494;48.744;10.106;2023-03-12T02:13:02;0.90;31.70
1011;DHT22;494;48.744;10.106;2023-03-12T02:15:34;1.10;31.70
1011;DHT22;494;48.744;10.106;2023-03-12T02:18:09;1.30;31.80
1011;DHT22;494;48.744;10.106;2023-03-12T02:20:48;1.40;31.80
1011;DHT22;494;48.744;10.106;2023-03-12T02:23:28;1.40;31.70
1011;DHT22;494;48.744;10.106;2023-03-12T02:26:04;1.40;31.80
1011;DHT22;494;48.744;10.106;2023-03-12T02:28:35;1.50;31.90
1011;DHT22;494;48.744;10.106;2023-03-12T02:31:16;1.60;31.80
1011;DHT22;494;48.744;10.106;2023-03-12T02:33:49;1.40;31.60
1011;DHT22;494;48.744;10.106;2023-03-12T02:36:29;1.50;31.40
1011;DHT22;494;48.744;10.106;2023-03-12T02:38:59;1.70;31.50
1011;DHT22;494;48.744;10.106;2023-03-12T02:41:31;1.60;31.30
1011;DHT22;494;48.744;10.106;2023-03-12T02:44:09;1.60;31.40
1011;DHT22;494;48.744;10.106;2023-03-12T02:46:43;1.70;31.50
1011;DHT22;494;48.744;10.106;2023-03-12T02:49:22;1.80;31.50
1011;DHT22;494;48.744;10.106;2023-03-12T02:51:52;1.70;31.60
1011;DHT22;494;48.744;10.106;2023-03-12T02:54:24;1.70;31.70
1011;DHT22;494;48.744;10.106;2023-03-12T02:56:57;1.90;31.80
1011;DHT22;494;48.744;10.106;2023-03-12T02:59:30;1.90;31.90
1011;DHT22;494;48.744;10.106;2023-03-12T03:02:04;1.80;31.80
1011;DHT22;494;48.744;10.106;2023-03-12T03:04:33;1.60;31.70
1011;DHT22;494;48.744;10.106;2023-03-12T03:07:02;1.70;31.90
1011;DHT22;494;48.744;10.106;2023-03-12T03:09:33;1.70;32.10
1011;DHT22;494;48.744;10.106;2023-03-12T03:12:10;1.80;32.10
1011;DHT22;494;48.744;10.106;2023-03-12T03:14:38;1.70;32.30
1011;DHT22;494;48.744;10.106;2023-03-12T03:17:08;1.70;32.30
1011;DHT22;494;48.744;10.106;2023-03-12T03:19:39;1.90;32.40
1011;DHT22;494;48.744;10.106;2023-03-12T03:22:08;1.90;32.30
1011;DHT22;494;48.744;10.106;2023-03-12T03:24:41;1.80;32.30
1011;DHT22;494;48.744;10.106;2023-03-12T03:27:33;1.80;32.30
1011;DHT22;494;48.744;10.106;2023-03-12T03:30:07;2.00;32.30
1011;DHT22;494;48.744;10.106;2023-03-12T03:32:38;1.60;32.00
1011;DHT22;494;48.744;10.106;2023-03-12T03:35:10;2.00;32.30
1011;DHT22;494;48.744;10.106;2023-03-12T03:37:45;1.70;32.20
1011;DHT22;494;48.744;10.106;2023-03-12T03:40:14;1.70;32.60
1011;DHT22;494;48.744;10.106;2023-03-12T03:42:45;1.80;32.60
1011;DHT22;494;48.744;10.106;2023-03-12T03:45:20;1.60;32.70
1011;DHT22;494;48.744;10.106;2023-03-12T03:47:53;1.50;33.10
1011;DHT22;494;48.744;10.106;2023-03-12T03:50:22;1.40;33.00
1011;DHT22;494;48.744;10.106;2023-03-12T03:52:52;1.40;33.30
1011;DHT22;494;48.744;10.106;2023-03-12T03:55:21;1.40;33.30
1011;DHT22;494;48.744;10.106;2023-03-12T03:57:55;1.60;33.50
1011;DHT22;494;48.744;10.106;2023-03-12T04:00:24;1.60;33.50
1011;DHT22;494;48.744;10.106;2023-03-12T04:02:57;1.60;33.30
1011;DHT22;494;48.744;10.106;2023-03-12T04:05:37;1.60;33.10
1011;DHT22;494;48.744;10.106;2023-03-12T04:08:17;1.80;33.10
1011;DHT22;494;48.744;10.106;2023-03-12T04:10:46;1.70;32.90
1011;DHT22;494;48.744;10.106;2023-03-12T04:13:16;1.80;32.80
1011;DHT22;494;48.744;10.106;2023-03-12T04:15:46;1.70;32.90
1011;DHT22;494;48.744;10.106;2023-03-12T04:18:15;1.80;32.40
1011;DHT22;494;48.744;10.106;2023-03-12T04:20:47;1.90;32.40
1011;DHT22;494;48.744;10.106;2023-03-12T04:23:16;2.00;32.60
1011;DHT22;494;48.744;10.106;2023-03-12T04:25:44;1.80;32.20
1011;DHT22;494;48.744;10.106;2023-03-12T04:28:13;1.90;32.00
1011;DHT22;494;48.744;10.106;2023-03-12T04:30:54;2.00;32.00
1011;DHT22;494;48.744;10.106;2023-03-12T04:33:31;2.00;32.00
1011;DHT22;494;48.744;10.106;2023-03-12T04:36:17;2.00;32.10
1011;DHT22;494;48.744;10.106;2023-03-12T04:38:52;1.90;32.20
1011;DHT22;494;48.744;10.106;2023-03-12T04:41:23;2.00;32.10
1011;DHT22;494;48.744;10.106;2023-03-12T04:43:56;1.90;32.10
1011;DHT22;494;48.744;10.106;2023-03-12T04:46:27;1.90;32.30
1011;DHT22;494;48.744;10.106;2023-03-12T04:48:57;2.00;32.10
1011;DHT22;494;48.744;10.106;2023-03-12T04:51:34;2.10;32.20
1011;DHT22;494;48.744;10.106;2023-03-12T04:54:14;1.90;32.10
1011;DHT22;494;48.744;10.106;2023-03-12T04:56:43;2.10;31.90
1011;DHT22;494;48.744;10.106;2023-03-12T04:59:13;1.90;32.00
1011;DHT22;494;48.744;10.106;2023-03-12T05:01:42;2.00;32.70
1011;DHT22;494;48.744;10.106;2023-03-12T05:04:11;2.00;32.00
1011;DHT22;494;48.744;10.106;2023-03-12T05:06:40;2.10;32.00
1011;DHT22;494;48.744;10.106;2023-03-12T05:09:09;2.10;31.90
1011;DHT22;494;48.744;10.106;2023-03-12T05:11:38;2.00;31.90
1011;DHT22;494;48.744;10.106;2023-03-12T05:14:07;2.00;31.90
1011;DHT22;494;48.744;10.106;2023-03-12T05:16:38;2.20;32.10
1011;DHT22;494;48.744;10.106;2023-03-12T05:19:07;2.20;32.40
1011;DHT22;494;48.744;10.106;2023-03-12T05:21:36;2.10;32.30
1011;DHT22;494;48.744;10.106;2023-03-12T05:24:08;2.10;32.20
1011;DHT22;494;48.744;10.106;2023-03-12T05:26:39;2.30;32.50
1011;DHT22;494;48.744;10.106;2023-03-12T05:29:08;2.20;32.40
1011;DHT22;494;48.744;10.106;2023-03-12T05:31:39;2.20;32.30
1011;DHT22;494;48.744;10.106;2023-03-12T05:34:10;2.00;32.30
1011;DHT22;494;48.744;10.106;2023-03-12T05:36:40;2.40;32.30
1011;DHT22;494;48.744;10.106;2023-03-12T05:39:09;2.40;32.10
1011;DHT22;494;48.744;10.106;2023-03-12T05:41:38;2.50;32.00
1011;DHT22;494;48.744;10.106;2023-03-12T05:44:10;2.50;31.90
1011;DHT22;494;48.744;10.106;2023-03-12T05:46:43;2.60;31.90
1011;DHT22;494;48.744;10.106;2023-03-12T05:49:12;2.50;32.10
1011;DHT22;494;48.744;10.106;2023-03-12T05:51:41;2.60;32.10
1011;DHT22;494;48.744;10.106;2023-03-12T05:54:10;2.50;31.90
1011;DHT22;494;48.744;10.106;2023-03-12T05:56:39;2.50;31.80
1011;DHT22;494;48.744;10.106;2023-03-12T05:59:08;2.70;32.00
1011;DHT22;494;48.744;10.106;2023-03-12T06:01:40;2.70;32.00
1011;DHT22;494;48.744;10.106;2023-03-12T06:04:13;2.50;32.30
1011;DHT22;494;48.744;10.106;2023-03-12T06:06:41;2.60;32.60
1011;DHT22;494;48.744;10.106;2023-03-12T06:09:12;2.60;33.00
1011;DHT22;494;48.744;10.106;2023-03-12T06:11:43;2.60;32.90
1011;DHT22;494;48.744;10.106;2023-03-12T06:14:12;2.40;32.60
1011;DHT22;494;48.744;10.106;2023-03-12T06:16:42;2.80;32.70
1011;DHT22;494;48.744;10.106;2023-03-12T06:19:13;2.70;32.50
1011;DHT22;494;48.744;10.106;2023-03-12T06:21:42;2.80;32.10
1011;DHT22;494;48.744;10.106;2023-03-12T06:24:11;2.80;32.10
1011;DHT22;494;48.744;10.106;2023-03-12T06:26:40;2.90;31.90
1011;DHT22;494;48.744;10.106;2023-03-12T06:29:10;3.10;31.70
1011;DHT22;494;48.744;10.106;2023-03-12T06:31:40;3.20;31.60
1011;DHT22;494;48.744;10.106;2023-03-12T06:34:10;3.00;31.30
1011;DHT22;494;48.744;10.106;2023-03-12T06:36:40;3.20;30.90
1011;DHT22;494;48.744;10.106;2023-03-12T06:39:09;3.00;30.80
1011;DHT22;494;48.744;10.106;2023-03-12T06:41:38;3.10;30.90
1011;DHT22;494;48.744;10.106;2023-03-12T06:44:10;3.20;30.90
1011;DHT22;494;48.744;10.106;2023-03-12T06:46:39;3.10;31.00
1011;DHT22;494;48.744;10.106;2023-03-12T06:49:10;3.30;30.80
1011;DHT22;494;48.744;10.106;2023-03-12T06:51:41;3.30;30.90
1011;DHT22;494;48.744;10.106;2023-03-12T06:54:10;3.20;30.70
1011;DHT22;494;48.744;10.106;2023-03-12T06:56:39;3.30;30.80
1011;DHT22;494;48.744;10.106;2023-03-12T06:59:08;3.40;30.40
1011;DHT22;494;48.744;10.106;2023-03-12T07:01:44;3.50;30.10
1011;DHT22;494;48.744;10.106;2023-03-12T07:04:45;3.50;29.40
1011;DHT22;494;48.744;10.106;2023-03-12T07:11:51;3.50;28.70
1011;DHT22;494;48.744;10.106;2023-03-12T07:14:22;3.50;28.60
1011;DHT22;494;48.744;10.106;2023-03-12T07:16:54;3.80;28.60
1011;DHT22;494;48.744;10.106;2023-03-12T07:19:34;3.80;28.10
1011;DHT22;494;48.744;10.106;2023-03-12T07:22:29;3.90;27.80
1011;DHT22;494;48.744;10.106;2023-03-12T07:25:00;3.80;27.80
1011;DHT22;494;48.744;10.106;2023-03-12T07:27:46;3.90;28.30
1011;DHT22;494;48.744;10.106;2023-03-12T07:30:21;3.80;28.60
1011;DHT22;494;48.744;10.106;2023-03-12T07:33:09;3.60;29.10
1011;DHT22;494;48.744;10.106;2023-03-12T07:35:42;3.50;28.30
1011;DHT22;494;48.744;10.106;2023-03-12T07:38:38;3.70;29.40
1011;DHT22;494;48.744;10.106;2023-03-12T07:41:27;3.70;29.30
1011;DHT22;494;48.744;10.106;2023-03-12T07:44:12;3.80;28.90
1011;DHT22;494;48.744;10.106;2023-03-12T07:46:55;3.90;29.00
1011;DHT22;494;48.744;10.106;2023-03-12T07:49:35;4.00;28.50
1011;DHT22;494;48.744;10.106;2023-03-12T07:52:09;4.20;28.00
1011;DHT22;494;48.744;10.106;2023-03-12T07:54:53;4.30;27.60
1011;DHT22;494;48.744;10.106;2023-03-12T07:57:24;4.50;27.50
1011;DHT22;494;48.744;10.106;2023-03-12T07:59:55;4.40;27.10
1011;DHT22;494;48.744;10.106;2023-03-12T08:02:23;4.40;27.00
1011;DHT22;494;48.744;10.106;2023-03-12T08:04:52;4.50;27.20
1011;DHT22;494;48.744;10.106;2023-03-12T08:07:21;4.50;27.20
1011;DHT22;494;48.744;10.106;2023-03-12T08:09:49;4.70;27.60
1011;DHT22;494;48.744;10.106;2023-03-12T08:12:18;4.70;27.80
1011;DHT22;494;48.744;10.106;2023-03-12T08:14:47;4.80;28.20
1011;DHT22;494;48.744;10.106;2023-03-12T08:17:17;4.80;28.70
1011;DHT22;494;48.744;10.106;2023-03-12T08:19:46;4.70;28.40
1011;DHT22;494;48.744;10.106;2023-03-12T08:22:15;4.70;28.80
1011;DHT22;494;48.744;10.106;2023-03-12T08:24:44;4.90;29.60
1011;DHT22;494;48.744;10.106;2023-03-12T08:27:13;5.00;29.80
1011;DHT22;494;48.744;10.106;2023-03-12T08:29:46;5.20;30.50
1011;DHT22;494;48.744;10.106;2023-03-12T08:32:15;5.30;30.90
1011;DHT22;494;48.744;10.106;2023-03-12T08:34:46;5.40;30.50
1011;DHT22;494;48.744;10.106;2023-03-12T08:37:15;5.60;30.50
1011;DHT22;494;48.744;10.106;2023-03-12T08:39:51;5.40;30.60
1011;DHT22;494;48.744;10.106;2023-03-12T08:42:24;5.40;31.10
1011;DHT22;494;48.744;10.106;2023-03-12T08:44:53;5.50;31.50
1011;DHT22;494;48.744;10.106;2023-03-12T08:47:23;5.40;31.50
1011;DHT22;494;48.744;10.106;2023-03-12T08:49:52;5.10;33.30
1011;DHT22;494;48.744;10.106;2023-03-12T08:52:22;5.20;34.60
1011;DHT22;494;48.744;10.106;2023-03-12T08:54:51;5.20;35.00
1011;DHT22;494;48.744;10.106;2023-03-12T08:57:20;5.20;35.10
1011;DHT22;494;48.744;10.106;2023-03-12T08:59:48;5.10;35.50
1011;DHT22;494;48.744;10.106;2023-03-12T09:02:17;5.10;35.70
1011;DHT22;494;48.744;10.106;2023-03-12T09:04:49;5.20;36.30
1011;DHT22;494;48.744;10.106;2023-03-12T09:07:18;5.20;36.30
1011;DHT22;494;48.744;10.106;2023-03-12T09:09:48;5.30;36.80
1011;DHT22;494;48.744;10.106;2023-03-12T09:12:18;5.30;36.70
1011;DHT22;494;48.744;10.106;2023-03-12T09:14:50;5.50;36.90
1011;DHT22;494;48.744;10.106;2023-03-12T09:17:34;5.50;37.20
1011;DHT22;494;48.744;10.106;2023-03-12T09:20:07;5.70;37.60
1011;DHT22;494;48.744;10.106;2023-03-12T09:22:40;5.80;37.30
1011;DHT22;494;48.744;10.106;2023-03-12T09:25:10;6.00;37.60
1011;DHT22;494;48.744;10.106;2023-03-12T09:27:43;6.40;38.00
1011;DHT22;494;48.744;10.106;2023-03-12T09:30:16;6.40;37.60
1011;DHT22;494;48.744;10.106;2023-03-12T09:32:50;6.50;38.00
1011;DHT22;494;48.744;10.106;2023-03-12T09:35:20;6.80;37.60
1011;DHT22;494;48.744;10.106;2023-03-12T09:37:49;6.60;37.90
1011;DHT22;494;48.744;10.106;2023-03-12T09:40:20;6.60;38.90
1011;DHT22;494;48.744;10.106;2023-03-12T09:42:53;6.70;40.20
1011;DHT22;494;48.744;10.106;2023-03-12T09:45:27;6.60;40.40
1011;DHT22;494;48.744;10.106;2023-03-12T09:47:59;6.40;40.50
1011;DHT22;494;48.744;10.106;2023-03-12T09:50:34;6.20;41.70
1011;DHT22;494;48.744;10.106;2023-03-12T09:53:10;6.20;43.00
1011;DHT22;494;48.744;10.106;2023-03-12T09:55:44;6.00;43.60
1011;DHT22;494;48.744;10.106;2023-03-12T09:58:21;6.10;43.80
1011;DHT22;494;48.744;10.106;2023-03-12T10:00:58;6.10;44.20
1011;DHT22;494;48.744;10.106;2023-03-12T10:03:54;6.10;44.70
1011;DHT22;494;48.744;10.106;2023-03-12T10:06:33;6.10;45.60
1011;DHT22;494;48.744;10.106;2023-03-12T10:09:19;6.10;45.10
1011;DHT22;494;48.744;10.106;2023-03-12T10:12:13;6.10;46.00
1011;DHT22;494;48.744;10.106;2023-03-12T10:14:57;6.30;46.10
1011;DHT22;494;48.744;10.106;2023-03-12T10:17:44;6.30;46.00
1011;DHT22;494;48.744;10.106;2023-03-12T10:20:48;6.30;45.80
1011;DHT22;494;48.744;10.106;2023-03-12T10:23:33;6.30;46.40
1011;DHT22;494;48.744;10.106;2023-03-12T10:26:15;6.40;46.30
1011;DHT22;494;48.744;10.106;2023-03-12T10:28:50;6.40;46.20
1011;DHT22;494;48.744;10.106;2023-03-12T10:31:28;6.30;46.60
1011;DHT22;494;48.744;10.106;2023-03-12T10:34:07;6.30;47.70
1011;DHT22;494;48.744;10.106;2023-03-12T10:36:43;6.20;48.20
1011;DHT22;494;48.744;10.106;2023-03-12T10:39:18;6.30;48.40
1011;DHT22;494;48.744;10.106;2023-03-12T10:41:48;6.30;48.50
1011;DHT22;494;48.744;10.106;2023-03-12T10:44:21;6.30;48.80
1011;DHT22;494;48.744;10.106;2023-03-12T10:47:06;6.30;49.10
1011;DHT22;494;48.744;10.106;2023-03-12T10:49:45;6.40;49.30
1011;DHT22;494;48.744;10.106;2023-03-12T10:52:18;6.50;49.20
1011;DHT22;494;48.744;10.106;2023-03-12T10:54:51;6.60;49.40
1011;DHT22;494;48.744;10.106;2023-03-12T10:57:20;6.50;49.30
1011;DHT22;494;48.744;10.106;2023-03-12T10:59:49;6.80;50.50
1011;DHT22;494;48.744;10.106;2023-03-12T11:02:32;6.70;49.90
1011;DHT22;494;48.744;10.106;2023-03-12T11:05:18;6.80;50.60
1011;DHT22;494;48.744;10.106;2023-03-12T11:07:50;6.70;50.00
1011;DHT22;494;48.744;10.106;2023-03-12T11:10:23;6.70;50.40
1011;DHT22;494;48.744;10.106;2023-03-12T11:12:56;6.80;50.80
1011;DHT22;494;48.744;10.106;2023-03-12T11:15:36;6.90;50.80
1011;DHT22;494;48.744;10.106;2023-03-12T11:18:31;6.80;50.70
1011;DHT22;494;48.744;10.106;2023-03-12T11:21:16;6.80;51.30
1011;DHT22;494;48.744;10.106;2023-03-12T11:24:03;6.90;51.70
1011;DHT22;494;48.744;10.106;2023-03-12T11:26:50;6.90;51.60
1011;DHT22;494;48.744;10.106;2023-03-12T11:29:26;6.90;52.30
1011;DHT22;494;48.744;10.106;2023-03-12T11:32:05;7.00;52.50
1011;DHT22;494;48.744;10.106;2023-03-12T11:34:43;7.30;52.70
1011;DHT22;494;48.744;10.106;2023-03-12T11:37:18;7.30;52.70
1011;DHT22;494;48.744;10.106;2023-03-12T11:40:07;7.50;52.90
1011;DHT22;494;48.744;10.106;2023-03-12T11:42:58;7.40;52.90
1011;DHT22;494;48.744;10.106;2023-03-12T11:45:44;7.60;52.90
1011;DHT22;494;48.744;10.106;2023-03-12T11:48:30;7.60;52.90
1011;DHT22;494;48.744;10.106;2023-03-12T11:51:16;7.90;52.70
1011;DHT22;494;48.744;10.106;2023-03-12T11:57:13;7.90;52.80
1011;DHT22;494;48.744;10.106;2023-03-12T11:59:58;8.20;52.80
1011;DHT22;494;48.744;10.106;2023-03-12T12:06:11;8.40;52.10
1011;DHT22;494;48.744;10.106;2023-03-12T12:11:54;8.70;52.50
1011;DHT22;494;48.744;10.106;2023-03-12T12:14:47;8.90;53.30
1011;DHT22;494;48.744;10.106;2023-03-12T12:17:38;8.80;54.40
1011;DHT22;494;48.744;10.106;2023-03-12T12:20:31;8.80;56.80
1011;DHT22;494;48.744;10.106;2023-03-12T12:23:21;8.80;57.80
1011;DHT22;494;48.744;10.106;2023-03-12T12:26:05;9.00;58.40
1011;DHT22;494;48.744;10.106;2023-03-12T12:28:59;9.40;58.40
1011;DHT22;494;48.744;10.106;2023-03-12T12:31:49;9.50;58.20
1011;DHT22;494;48.744;10.106;2023-03-12T12:34:33;9.60;57.20
1011;DHT22;494;48.744;10.106;2023-03-12T12:37:42;9.60;58.60
1011;DHT22;494;48.744;10.106;2023-03-12T12:40:19;9.80;58.10
1011;DHT22;494;48.744;10.106;2023-03-12T12:42:56;10.00;56.40
1011;DHT22;494;48.744;10.106;2023-03-12T12:45:31;10.00;55.80
1011;DHT22;494;48.744;10.106;2023-03-12T12:48:04;10.10;57.00
1011;DHT22;494;48.744;10.106;2023-03-12T12:50:38;10.40;56.60
1011;DHT22;494;48.744;10.106;2023-03-12T12:53:20;10.80;56.20
1011;DHT22;494;48.744;10.106;2023-03-12T12:56:01;11.10;54.50
1011;DHT22;494;48.744;10.106;2023-03-12T12:58:51;11.30;52.80
1011;DHT22;494;48.744;10.106;2023-03-12T13:01:30;11.20;51.60
1011;DHT22;494;48.744;10.106;2023-03-12T13:04:05;11.40;51.10
1011;DHT22;494;48.744;10.106;2023-03-12T13:07:01;11.60;50.30
1011;DHT22;494;48.744;10.106;2023-03-12T13:09:41;11.70;50.30
1011;DHT22;494;48.744;10.106;2023-03-12T13:12:14;11.80;49.80
1011;DHT22;494;48.744;10.106;2023-03-12T13:14:48;11.70;48.90
1011;DHT22;494;48.744;10.106;2023-03-12T13:17:28;11.60;49.40
1011;DHT22;494;48.744;10.106;2023-03-12T13:20:13;11.40;49.40
1011;DHT22;494;48.744;10.106;2023-03-12T13:23:08;11.30;50.10
1011;DHT22;494;48.744;10.106;2023-03-12T13:25:58;11.20;50.60
1011;DHT22;494;48.744;10.106;2023-03-12T13:28:37;11.50;51.30
1011;DHT22;494;48.744;10.106;2023-03-12T13:31:39;11.50;49.50
1011;DHT22;494;48.744;10.106;2023-03-12T13:34:32;11.60;48.60
1011;DHT22;494;48.744;10.106;2023-03-12T13:37:57;11.50;48.40
1011;DHT22;494;48.744;10.106;2023-03-12T13:40:37;11.40;48.60
1011;DHT22;494;48.744;10.106;2023-03-12T13:43:47;11.50;50.20
1011;DHT22;494;48.744;10.106;2023-03-12T13:46:43;11.50;49.70
1011;DHT22;494;48.744;10.106;2023-03-12T13:49:15;11.80;49.10
1011;DHT22;494;48.744;10.106;2023-03-12T13:51:55;12.10;46.40
1011;DHT22;494;48.744;10.106;2023-03-12T13:54:33;12.20;45.90
1011;DHT22;494;48.744;10.106;2023-03-12T13:57:11;12.20;45.60
1011;DHT22;494;48.744;10.106;2023-03-12T13:59:52;12.30;45.60
1011;DHT22;494;48.744;10.106;2023-03-12T14:02:25;12.20;44.70
1011;DHT22;494;48.744;10.106;2023-03-12T14:05:02;12.20;44.70
1011;DHT22;494;48.744;10.106;2023-03-12T14:08:05;12.20;45.50
1011;DHT22;494;48.744;10.106;2023-03-12T14:10:54;12.20;45.70
1011;DHT22;494;48.744;10.106;2023-03-12T14:13:57;12.20;45.70
1011;DHT22;494;48.744;10.106;2023-03-12T14:16:39;12.20;45.60
1011;DHT22;494;48.744;10.106;2023-03-12T14:19:12;12.40;45.80
1011;DHT22;494;48.744;10.106;2023-03-12T14:21:44;12.50;45.50
1011;DHT22;494;48.744;10.106;2023-03-12T14:24:25;12.50;45.00
1011;DHT22;494;48.744;10.106;2023-03-12T14:26:59;12.70;44.60
1011;DHT22;494;48.744;10.106;2023-03-12T14:29:34;12.80;43.70
1011;DHT22;494;48.744;10.106;2023-03-12T14:32:12;12.90;43.40
1011;DHT22;494;48.744;10.106;2023-03-12T14:34:48;13.00;42.60
1011;DHT22;494;48.744;10.106;2023-03-12T14:37:23;13.10;41.70
1011;DHT22;494;48.744;10.106;2023-03-12T14:39:58;13.00;41.20
1011;DHT22;494;48.744;10.106;2023-03-12T14:42:33;13.00;41.90
1011;DHT22;494;48.744;10.106;2023-03-12T14:45:09;12.90;43.00
1011;DHT22;494;48.744;10.106;2023-03-12T14:47:39;12.70;44.00
1011;DHT22;494;48.744;10.106;2023-03-12T14:50:16;12.70;44.70
1011;DHT22;494;48.744;10.106;2023-03-12T14:52:46;12.30;45.80
1011;DHT22;494;48.744;10.106;2023-03-12T14:55:18;12.10;47.70
1011;DHT22;494;48.744;10.106;2023-03-12T14:58:02;11.80;50.00
1011;DHT22;494;48.744;10.106;2023-03-12T15:00:31;11.80;50.30
1011;DHT22;494;48.744;10.106;2023-03-12T15:03:03;11.60;50.20
1011;DHT22;494;48.744;10.106;2023-03-12T15:05:44;11.60;50.60
1011;DHT22;494;48.744;10.106;2023-03-12T15:08:13;11.70;50.90
1011;DHT22;494;48.744;10.106;2023-03-12T15:10:47;11.80;50.70
1011;DHT22;494;48.744;10.106;2023-03-12T15:13:19;12.10;50.00
1011;DHT22;494;48.744;10.106;2023-03-12T15:15:52;12.10;48.80
1011;DHT22;494;48.744;10.106;2023-03-12T15:18:24;12.00;48.80
1011;DHT22;494;48.744;10.106;2023-03-12T15:20:56;12.20;48.90
1011;DHT22;494;48.744;10.106;2023-03-12T15:23:28;12.20;47.90
1011;DHT22;494;48.744;10.106;2023-03-12T15:26:12;12.40;48.70
1011;DHT22;494;48.744;10.106;2023-03-12T15:28:55;12.70;45.50
1011;DHT22;494;48.744;10.106;2023-03-12T15:31:26;13.40;44.20
1011;DHT22;494;48.744;10.106;2023-03-12T15:34:09;14.20;38.60
1011;DHT22;494;48.744;10.106;2023-03-12T15:36:45;14.80;34.10
1011;DHT22;494;48.744;10.106;2023-03-12T15:39:22;14.40;35.80
1011;DHT22;494;48.744;10.106;2023-03-12T15:41:54;14.00;36.00
1011;DHT22;494;48.744;10.106;2023-03-12T15:44:32;14.00;37.50
1011;DHT22;494;48.744;10.106;2023-03-12T15:47:12;13.80;37.60
1011;DHT22;494;48.744;10.106;2023-03-12T15:49:43;13.50;37.40
1011;DHT22;494;48.744;10.106;2023-03-12T15:52:27;13.30;38.80
1011;DHT22;494;48.744;10.106;2023-03-12T15:55:04;13.20;39.40
1011;DHT22;494;48.744;10.106;2023-03-12T15:57:44;13.20;39.90
1011;DHT22;494;48.744;10.106;2023-03-12T16:00:24;13.20;39.80
1011;DHT22;494;48.744;10.106;2023-03-12T16:02:56;12.90;39.30
1011;DHT22;494;48.744;10.106;2023-03-12T16:05:28;12.80;41.70
1011;DHT22;494;48.744;10.106;2023-03-12T16:08:00;12.80;41.80
1011;DHT22;494;48.744;10.106;2023-03-12T16:10:34;12.90;40.40
1011;DHT22;494;48.744;10.106;2023-03-12T16:13:05;12.90;40.80
1011;DHT22;494;48.744;10.106;2023-03-12T16:15:37;12.90;40.70
1011;DHT22;494;48.744;10.106;2023-03-12T16:18:11;12.80;40.80
1011;DHT22;494;48.744;10.106;2023-03-12T16:20:41;12.50;41.20
1011;DHT22;494;48.744;10.106;2023-03-12T16:23:10;12.20;41.10
1011;DHT22;494;48.744;10.106;2023-03-12T16:25:41;12.20;40.60
1011;DHT22;494;48.744;10.106;2023-03-12T16:28:12;12.20;40.60
1011;DHT22;494;48.744;10.106;2023-03-12T16:30:45;12.10;40.70
1011;DHT22;494;48.744;10.106;2023-03-12T16:33:16;12.20;40.90
1011;DHT22;494;48.744;10.106;2023-03-12T16:35:46;12.10;41.00
1011;DHT22;494;48.744;10.106;2023-03-12T16:38:16;12.10;41.20
1011;DHT22;494;48.744;10.106;2023-03-12T16:40:46;12.10;41.20
1011;DHT22;494;48.744;10.106;2023-03-12T16:43:18;12.10;41.40
1011;DHT22;494;48.744;10.106;2023-03-12T16:45:51;12.20;40.60
1011;DHT22;494;48.744;10.106;2023-03-12T16:48:22;12.20;40.40
1011;DHT22;494;48.744;10.106;2023-03-12T16:50:54;12.20;40.20
1011;DHT22;494;48.744;10.106;2023-03-12T16:53:25;12.20;40.20
1011;DHT22;494;48.744;10.106;2023-03-12T16:55:55;12.20;40.90
1011;DHT22;494;48.744;10.106;2023-03-12T16:58:26;12.20;40.60
1011;DHT22;494;48.744;10.106;2023-03-12T17:00:57;12.10;40.50
1011;DHT22;494;48.744;10.106;2023-03-12T17:03:30;12.10;40.40
1011;DHT22;494;48.744;10.106;2023-03-12T17:06:04;12.00;40.10
1011;DHT22;494;48.744;10.106;2023-03-12T17:08:33;11.80;40.20
1011;DHT22;494;48.744;10.106;2023-03-12T17:11:05;11.80;40.40
1011;DHT22;494;48.744;10.106;2023-03-12T17:13:41;11.60;41.70
1011;DHT22;494;48.744;10.106;2023-03-12T17:16:14;11.50;42.40
1011;DHT22;494;48.744;10.106;2023-03-12T17:18:43;11.40;42.50
1011;DHT22;494;48.744;10.106;2023-03-12T17:21:13;11.40;42.70